Time;durP1;ratioP1;P1;durP2;ratioP2;P2;SDS_P1;SDS_P2;PMS_P1;PMS_P2;Temp;Humidity;BMP_temperature;BMP_pressure;BME280_temperature;BME280_humidity;BME280_pressure;Samples;Min_cycle;Max_cycle;Signal;HPM_P1;HPM_P2
2023/05/04 00:01:11;;;;;;;1.27;0.98;;;;;;;26.12;32.48;100431.53;7399015;19;20029;-57
2023/05/04 00:03:37;;;;;;;1.90;1.80;;;;;;;26.06;32.80;100436.63;7397347;19;20014;-58
2023/05/04 00:06:03;;;;;;;1.63;1.15;;;;;;;26.20;32.40;100429.47;7397387;19;20011;-58
2023/05/04 00:08:30;;;;;;;2.47;1.40;;;;;;;26.01;32.64;100426.94;7396440;19;20037;-58
2023/05/04 00:10:56;;;;;;;3.83;1.10;;;;;;;25.96;32.98;100422.19;7397002;19;20010;-58
2023/05/04 00:13:23;;;;;;;0.90;0.90;;;;;;;25.95;33.02;100422.72;7396445;19;20014;-58
2023/05/04 00:15:49;;;;;;;1.30;1.23;;;;;;;26.29;32.73;100414.59;7396373;19;20039;-57
2023/05/04 00:18:15;;;;;;;1.35;1.30;;;;;;;26.04;32.61;100419.31;7396915;19;20015;-57
2023/05/04 00:20:41;;;;;;;1.20;1.20;;;;;;;25.95;33.23;100405.59;7396653;19;20014;-58
2023/05/04 00:23:07;;;;;;;1.55;1.30;;;;;;;25.94;33.01;100404.88;7396486;19;20011;-57
2023/05/04 00:25:34;;;;;;;1.42;1.42;;;;;;;25.85;32.92;100402.56;7395672;19;20015;-58
2023/05/04 00:28:00;;;;;;;1.38;1.27;;;;;;;25.67;33.09;100405.75;7395717;19;20015;-57
2023/05/04 00:30:26;;;;;;;0.82;0.82;;;;;;;25.56;33.22;100404.81;7396690;19;20010;-57
2023/05/04 00:32:52;;;;;;;3.50;1.42;;;;;;;25.56;33.33;100399.09;7394054;19;20006;-57
2023/05/04 00:35:18;;;;;;;0.20;0.20;;;;;;;25.56;33.09;100404.03;7395986;19;20475;-58
2023/05/04 00:37:45;;;;;;;1.30;0.85;;;;;;;25.55;33.54;100403.25;7393434;19;20066;-57
2023/05/04 00:40:11;;;;;;;1.50;1.38;;;;;;;25.55;33.51;100408.97;7397581;19;20011;-58
2023/05/04 00:42:37;;;;;;;1.65;1.30;;;;;;;25.51;33.56;100402.13;7397421;19;20018;-58
2023/05/04 00:45:04;;;;;;;2.45;1.13;;;;;;;25.43;33.19;100395.63;7394977;19;20539;-58
2023/05/04 00:47:30;;;;;;;1.63;1.52;;;;;;;25.45;33.64;100402.28;7393799;19;20343;-58
2023/05/04 00:49:57;;;;;;;6.13;1.90;;;;;;;25.42;33.33;100394.88;7396750;19;20501;-58
2023/05/04 00:52:23;;;;;;;1.02;0.95;;;;;;;25.44;33.16;100392.22;7397024;19;20002;-57
2023/05/04 00:54:51;;;;;;;1.10;1.02;;;;;;;25.35;33.35;100395.59;7394608;19;20011;-57
2023/05/04 00:57:18;;;;;;;0.82;0.80;;;;;;;25.25;33.51;100391.00;7392014;19;20495;-57
2023/05/04 00:59:44;;;;;;;1.63;1.52;;;;;;;25.24;33.53;100390.22;7393655;19;20031;-57
2023/05/04 01:02:10;;;;;;;1.63;0.77;;;;;;;25.08;33.54;100385.06;7397379;19;20010;-57
2023/05/04 01:04:37;;;;;;;0.82;0.82;;;;;;;25.12;33.79;100377.63;7394299;19;20511;-57
2023/05/04 01:07:16;;;;;;;1.20;0.95;;;;;;;25.19;33.84;100376.91;7391416;19;20022;-57
2023/05/04 01:09:57;;;;;;;0.82;0.82;;;;;;;25.41;33.85;100370.50;7393595;19;20011;-57
2023/05/04 01:12:32;;;;;;;3.35;1.38;;;;;;;25.61;33.76;100370.94;7397892;19;20014;-57
2023/05/04 01:14:59;;;;;;;2.60;1.55;;;;;;;25.67;33.41;100354.41;7394475;19;20014;-57
2023/05/04 01:17:26;;;;;;;1.85;1.55;;;;;;;25.72;33.54;100356.31;7394239;19;20018;-57
2023/05/04 01:19:52;;;;;;;1.00;1.00;;;;;;;25.74;33.62;100350.81;7396007;19;20047;-57
2023/05/04 01:22:20;;;;;;;1.27;1.00;;;;;;;25.76;33.05;100348.13;7393737;19;20018;-57
2023/05/04 01:24:47;;;;;;;1.55;1.33;;;;;;;25.73;33.66;100337.88;7394013;19;20081;-57
2023/05/04 01:27:28;;;;;;;1.10;1.02;;;;;;;25.70;33.89;100336.16;7392903;19;20357;-57
2023/05/04 01:30:06;;;;;;;1.67;1.38;;;;;;;25.71;33.55;100324.16;7393617;19;20007;-57
2023/05/04 01:32:35;;;;;;;3.60;0.80;;;;;;;25.62;33.63;100321.13;7394945;19;20006;-57
2023/05/04 01:35:02;;;;;;;1.75;1.65;;;;;;;25.64;33.63;100312.75;7391740;19;20033;-57
2023/05/04 01:37:28;;;;;;;2.08;1.75;;;;;;;25.60;34.07;100320.94;7392284;19;20015;-57
2023/05/04 01:39:54;;;;;;;1.38;1.02;;;;;;;25.53;34.27;100314.63;7394327;19;20011;-57
2023/05/04 01:42:20;;;;;;;8.77;1.05;;;;;;;25.70;33.83;100296.22;7396596;19;20011;-57
2023/05/04 01:44:46;;;;;;;3.97;1.70;;;;;;;25.79;34.06;100301.34;7393387;19;20007;-58
2023/05/04 01:47:13;;;;;;;4.35;1.17;;;;;;;25.76;34.11;100291.06;7391469;19;20350;-58
2023/05/04 01:49:39;;;;;;;1.00;1.00;;;;;;;25.69;33.90;100297.53;7400068;19;20017;-58
2023/05/04 01:52:05;;;;;;;1.75;1.13;;;;;;;25.67;33.80;100295.25;7403341;19;20011;-57
2023/05/04 01:54:31;;;;;;;1.02;1.02;;;;;;;25.71;34.30;100294.91;7401030;19;20010;-58
2023/05/04 01:56:58;;;;;;;1.15;1.15;;;;;;;25.87;33.98;100296.41;7401350;19;20014;-58
2023/05/04 01:59:24;;;;;;;1.55;0.88;;;;;;;25.81;33.94;100295.84;7398900;19;20014;-57
2023/05/04 02:01:50;;;;;;;0.88;0.77;;;;;;;25.78;34.19;100282.69;7401292;19;20014;-57
2023/05/04 02:04:16;;;;;;;6.03;1.30;;;;;;;25.77;34.23;100284.81;7400240;19;20031;-57
2023/05/04 02:06:42;;;;;;;2.38;1.33;;;;;;;25.79;34.05;100284.22;7398239;19;20091;-57
2023/05/04 02:09:08;;;;;;;1.08;1.05;;;;;;;25.78;33.96;100280.63;7400538;19;20347;-57
2023/05/04 02:11:35;;;;;;;5.45;2.45;;;;;;;25.73;34.13;100284.41;7399513;19;20015;-57
2023/05/04 02:14:01;;;;;;;2.97;1.42;;;;;;;25.82;34.21;100289.53;7398606;19;20018;-57
2023/05/04 02:16:27;;;;;;;1.85;0.85;;;;;;;25.85;33.79;100281.94;7398147;19;20021;-58
2023/05/04 02:18:53;;;;;;;12.82;2.13;;;;;;;25.85;33.87;100282.72;7399356;19;20007;-57
2023/05/04 02:21:19;;;;;;;1.25;1.25;;;;;;;25.88;34.22;100272.25;7400797;19;20060;-57
2023/05/04 02:23:45;;;;;;;3.03;1.17;;;;;;;25.92;34.03;100284.03;7400164;19;20007;-57
2023/05/04 02:26:12;;;;;;;2.70;1.73;;;;;;;25.76;33.93;100276.81;7399038;19;20046;-64
2023/05/04 02:28:38;;;;;;;1.27;1.27;;;;;;;25.69;34.47;100274.72;7398081;19;20022;-63
2023/05/04 02:31:04;;;;;;;5.72;1.50;;;;;;;25.72;34.57;100268.63;7398694;19;20514;-64
2023/05/04 02:33:39;;;;;;;1.33;1.23;;;;;;;25.77;34.37;100261.22;7397651;19;20066;-63
2023/05/04 02:36:08;;;;;;;0.82;0.82;;;;;;;25.76;34.24;100256.81;7400278;19;20011;-64
2023/05/04 02:38:34;;;;;;;0.88;0.85;;;;;;;25.81;34.73;100253.78;7399348;19;20014;-64
2023/05/04 02:41:00;;;;;;;1.45;1.20;;;;;;;25.92;34.19;100246.94;7406535;19;20078;-64
2023/05/04 02:43:26;;;;;;;0.73;0.73;;;;;;;25.97;34.41;100245.94;7405971;19;20033;-58
2023/05/04 02:45:52;;;;;;;0.98;0.85;;;;;;;26.01;34.43;100249.19;7400319;19;20094;-57
2023/05/04 02:48:19;;;;;;;2.28;2.10;;;;;;;25.95;34.44;100242.91;7394749;19;20019;-79
2023/05/04 02:50:46;;;;;;;0.80;0.80;;;;;;;25.95;34.40;100245.75;7397613;19;20432;-79
2023/05/04 02:53:12;;;;;;;0.88;0.80;;;;;;;26.02;34.53;100247.84;7395775;19;20374;-79
2023/05/04 02:55:38;;;;;;;7.90;1.75;;;;;;;26.10;34.23;100235.09;7396630;19;20023;-79
2023/05/04 02:58:05;;;;;;;5.97;1.83;;;;;;;26.09;34.68;100235.69;7391300;19;20018;-79
2023/05/04 03:00:31;;;;;;;1.45;1.35;;;;;;;26.11;34.59;100238.72;7393887;19;20033;-80
2023/05/04 03:02:57;;;;;;;1.13;0.80;;;;;;;26.12;34.57;100232.44;7399669;19;20018;-79
2023/05/04 03:05:23;;;;;;;1.08;1.08;;;;;;;26.26;34.84;100230.13;7395676;19;20039;-79
2023/05/04 03:07:51;;;;;;;3.05;1.25;;;;;;;26.25;34.22;100222.88;7396305;19;20715;-79
2023/05/04 03:10:18;;;;;;;1.77;1.67;;;;;;;26.21;34.74;100228.22;7391808;19;20424;-80
2023/05/04 03:12:45;;;;;;;3.85;2.13;;;;;;;26.15;34.60;100231.28;7396121;19;20018;-79
2023/05/04 03:15:11;;;;;;;5.35;1.08;;;;;;;26.14;34.88;100226.16;7391666;19;20107;-79
2023/05/04 03:17:38;;;;;;;3.03;1.20;;;;;;;26.13;34.97;100227.50;7391548;19;20115;-80
2023/05/04 03:20:04;;;;;;;3.05;1.60;;;;;;;25.92;34.68;100230.56;7399253;19;20345;-79
2023/05/04 03:22:32;;;;;;;1.33;1.23;;;;;;;25.84;34.88;100229.03;7396678;19;20030;-79
2023/05/04 03:24:58;;;;;;;2.90;1.80;;;;;;;25.77;35.20;100235.53;7393955;19;20022;-79
2023/05/04 03:27:24;;;;;;;20.98;2.00;;;;;;;25.72;35.68;100227.91;7392935;19;20099;-79
2023/05/04 03:29:51;;;;;;;3.40;1.90;;;;;;;25.75;35.56;100223.94;7391302;19;20375;-79
2023/05/04 03:32:17;;;;;;;1.40;1.10;;;;;;;25.77;35.41;100226.97;7395885;19;20006;-79
2023/05/04 03:34:44;;;;;;;2.53;2.30;;;;;;;25.97;35.32;100221.03;7392092;19;20066;-80
2023/05/04 03:37:11;;;;;;;1.25;0.93;;;;;;;25.96;34.97;100207.34;7392698;19;20014;-79
2023/05/04 03:39:37;;;;;;;1.42;1.33;;;;;;;25.90;34.94;100203.94;7395223;19;20084;-79
2023/05/04 03:42:03;;;;;;;2.15;0.75;;;;;;;25.88;35.22;100204.50;7397124;19;20015;-79
2023/05/04 03:44:29;;;;;;;13.50;1.80;;;;;;;25.90;35.13;100201.06;7397443;19;20014;-80
2023/05/04 03:46:55;;;;;;;2.47;1.75;;;;;;;25.89;35.31;100202.41;7392029;19;20024;-79
2023/05/04 03:49:22;;;;;;;2.92;1.65;;;;;;;25.86;35.31;100192.16;7392343;19;20389;-81
2023/05/04 03:51:48;;;;;;;0.88;0.88;;;;;;;25.89;35.37;100173.84;7391012;19;20022;-82
2023/05/04 03:54:15;;;;;;;1.58;1.48;;;;;;;25.94;35.77;100175.75;7390964;19;20467;-83
2023/05/04 03:56:41;;;;;;;1.40;1.20;;;;;;;26.07;35.43;100178.38;7391699;19;20050;-83
2023/05/04 03:59:08;;;;;;;3.67;0.93;;;;;;;25.96;35.76;100171.00;7389811;19;20476;-83
2023/05/04 04:01:34;;;;;;;1.50;1.40;;;;;;;25.95;35.67;100174.41;7393985;19;20078;-82
2023/05/04 04:04:01;;;;;;;2.72;2.40;;;;;;;26.39;35.38;100169.91;7391780;19;20468;-82
2023/05/04 04:06:28;;;;;;;1.23;1.23;;;;;;;26.56;35.17;100167.13;7393407;19;20508;-83
2023/05/04 04:08:54;;;;;;;1.33;1.20;;;;;;;26.65;35.16;100160.81;7391349;19;20041;-82
2023/05/04 04:11:20;;;;;;;1.10;1.10;;;;;;;26.63;34.92;100160.63;7394005;19;20357;-83
2023/05/04 04:13:46;;;;;;;4.38;1.95;;;;;;;26.84;34.74;100163.94;7392404;19;20031;-82
2023/05/04 04:16:13;;;;;;;3.70;1.70;;;;;;;26.91;34.72;100157.41;7392799;19;20479;-83
2023/05/04 04:18:39;;;;;;;8.82;1.70;;;;;;;26.74;34.66;100160.22;7392562;19;20821;-82
2023/05/04 04:21:05;;;;;;;1.67;1.30;;;;;;;26.78;34.51;100160.56;7393423;19;20045;-83
2023/05/04 04:23:31;;;;;;;10.20;2.05;;;;;;;26.76;34.51;100157.53;7396753;19;20077;-82
2023/05/04 04:25:57;;;;;;;1.70;1.48;;;;;;;26.75;34.69;100156.00;7391630;19;20007;-82
2023/05/04 04:28:23;;;;;;;5.15;1.98;;;;;;;26.59;34.84;100157.41;7392975;19;20483;-83
2023/05/04 04:30:50;;;;;;;1.52;1.42;;;;;;;26.54;34.59;100152.69;7391764;19;20022;-82
2023/05/04 04:33:16;;;;;;;7.28;2.92;;;;;;;26.52;34.82;100157.44;7396686;19;20388;-83
2023/05/04 04:35:43;;;;;;;3.45;1.20;;;;;;;26.27;34.93;100158.13;7393133;19;20022;-83
2023/05/04 04:38:09;;;;;;;1.73;1.25;;;;;;;26.09;35.28;100152.91;7391245;19;20543;-83
2023/05/04 04:40:35;;;;;;;5.07;1.13;;;;;;;26.33;34.97;100146.50;7391452;19;20014;-83
2023/05/04 04:43:01;;;;;;;3.78;1.67;;;;;;;26.49;35.05;100150.78;7396335;19;20047;-83
2023/05/04 04:45:27;;;;;;;2.40;2.10;;;;;;;26.50;34.95;100143.00;7392479;19;20481;-83
2023/05/04 04:47:53;;;;;;;4.95;2.45;;;;;;;26.52;34.58;100154.59;7389365;19;20031;-83
2023/05/04 04:50:19;;;;;;;1.98;1.80;;;;;;;26.59;34.88;100151.69;7392716;19;20022;-82
2023/05/04 04:52:46;;;;;;;1.40;1.23;;;;;;;26.63;35.04;100143.47;7391556;19;20552;-83
2023/05/04 04:55:14;;;;;;;2.95;1.70;;;;;;;26.70;34.63;100145.53;7390090;19;20010;-82
2023/05/04 04:57:40;;;;;;;10.15;1.60;;;;;;;26.74;35.16;100148.00;7389680;19;20017;-83
2023/05/04 05:00:08;;;;;;;2.50;1.30;;;;;;;26.62;35.24;100153.38;7390296;19;20022;-82
2023/05/04 05:02:35;;;;;;;1.38;1.30;;;;;;;26.62;35.51;100147.66;7394955;19;20039;-82
2023/05/04 05:05:01;;;;;;;1.70;1.55;;;;;;;26.41;35.13;100150.09;7391696;19;20019;-82
2023/05/04 05:07:28;;;;;;;2.35;1.30;;;;;;;26.53;35.50;100144.69;7389089;19;20018;-81
2023/05/04 05:09:54;;;;;;;2.13;1.92;;;;;;;26.69;35.39;100143.25;7388944;19;20019;-83
2023/05/04 05:12:20;;;;;;;4.40;1.67;;;;;;;26.76;35.05;100146.09;7391695;19;20014;-83
2023/05/04 05:14:46;;;;;;;22.65;1.65;;;;;;;27.95;33.78;100147.69;7388705;19;20023;-82
2023/05/04 05:17:12;;;;;;;9.75;1.73;;;;;;;27.99;33.46;100144.41;7388903;19;20029;-82
2023/05/04 05:19:38;;;;;;;7.65;1.73;;;;;;;28.30;33.32;100143.47;7392812;19;20052;-82
2023/05/04 05:22:05;;;;;;;4.13;1.45;;;;;;;28.58;32.74;100150.00;7390519;19;20037;-81
2023/05/04 05:24:31;;;;;;;1.23;0.70;;;;;;;28.57;32.75;100154.19;7388216;19;20011;-82
2023/05/04 05:26:57;;;;;;;10.98;2.08;;;;;;;28.58;32.90;100147.13;7388762;19;20489;-82
2023/05/04 05:29:24;;;;;;;4.65;1.67;;;;;;;28.67;32.79;100152.16;7387658;19;20441;-82
2023/05/04 05:31:51;;;;;;;5.50;1.52;;;;;;;28.72;32.71;100145.41;7388710;19;20014;-82
2023/05/04 05:34:17;;;;;;;0.90;0.70;;;;;;;28.81;32.85;100147.53;7387623;19;20010;-82
2023/05/04 05:36:43;;;;;;;2.25;1.85;;;;;;;28.61;33.21;100145.94;7387933;19;20022;-82
2023/05/04 05:39:10;;;;;;;2.75;1.73;;;;;;;28.49;33.30;100152.19;7386861;19;20018;-82
2023/05/04 05:41:36;;;;;;;2.47;1.45;;;;;;;28.59;33.31;100135.06;7389387;19;20117;-82
2023/05/04 05:44:03;;;;;;;6.13;1.75;;;;;;;28.72;33.08;100143.28;7391696;19;20439;-82
2023/05/04 05:46:29;;;;;;;2.33;1.15;;;;;;;28.93;32.65;100137.03;7390687;19;20014;-83
2023/05/04 05:48:55;;;;;;;1.80;1.40;;;;;;;28.89;33.14;100133.84;7390924;19;20014;-83
2023/05/04 05:51:21;;;;;;;2.22;1.48;;;;;;;28.72;33.21;100134.66;7389496;19;20019;-83
2023/05/04 05:53:47;;;;;;;3.05;1.35;;;;;;;28.91;33.13;100125.41;7394981;19;20025;-83
2023/05/04 05:56:13;;;;;;;0.95;0.60;;;;;;;28.22;33.87;100134.19;7389546;19;20015;-82
2023/05/04 05:58:40;;;;;;;1.23;1.23;;;;;;;28.10;33.92;100124.63;7388759;19;20022;-83
2023/05/04 06:01:06;;;;;;;1.17;1.08;;;;;;;28.34;33.74;100120.09;7390824;19;20015;-83
2023/05/04 06:03:32;;;;;;;1.63;1.52;;;;;;;28.38;33.40;100121.19;7393049;19;20485;-83
2023/05/04 06:05:58;;;;;;;2.42;1.83;;;;;;;28.33;33.44;100130.81;7388504;19;20025;-83
2023/05/04 06:08:25;;;;;;;5.30;1.65;;;;;;;28.26;33.59;100116.59;7387230;19;20361;-83
2023/05/04 06:10:53;;;;;;;3.67;2.88;;;;;;;28.80;33.40;100112.41;7388983;19;20014;-84
2023/05/04 06:13:19;;;;;;;2.90;1.55;;;;;;;29.11;32.56;100106.88;7391718;19;20047;-82
2023/05/04 06:15:52;;;;;;;5.07;1.88;;;;;;;29.14;32.91;100115.06;7390049;19;20078;-83
2023/05/04 06:18:19;;;;;;;2.60;1.52;;;;;;;29.01;32.56;100109.75;7389314;19;20042;-83
2023/05/04 06:20:46;;;;;;;3.45;1.73;;;;;;;29.06;33.14;100107.94;7388347;19;20480;-83
2023/05/04 06:23:16;;;;;;;4.68;1.77;;;;;;;29.02;32.82;100101.91;7391399;19;20015;-83
2023/05/04 06:25:42;;;;;;;3.55;1.23;;;;;;;29.10;33.03;100099.66;7389658;19;20057;-83
2023/05/04 06:28:08;;;;;;;2.03;1.80;;;;;;;29.15;32.51;100093.63;7384936;19;20018;-83
2023/05/04 06:30:35;;;;;;;5.45;2.20;;;;;;;29.24;32.98;100098.66;7384782;19;20022;-83
2023/05/04 06:33:01;;;;;;;3.15;1.65;;;;;;;29.32;32.74;100081.31;7389271;19;20050;-83
2023/05/04 06:35:28;;;;;;;5.55;2.25;;;;;;;29.39;32.64;100083.28;7388653;19;20078;-82
2023/05/04 06:37:54;;;;;;;6.40;2.55;;;;;;;29.58;32.34;100077.56;7394046;19;20583;-82
2023/05/04 06:40:20;;;;;;;1.98;0.98;;;;;;;29.74;31.92;100078.78;7398244;19;20035;-82
2023/05/04 06:42:47;;;;;;;1.95;1.08;;;;;;;29.78;32.10;100067.59;7398789;19;20361;-83
2023/05/04 06:45:13;;;;;;;2.50;1.63;;;;;;;29.66;31.98;100055.19;7398470;19;20025;-83
2023/05/04 06:47:39;;;;;;;6.82;2.55;;;;;;;29.45;31.89;100055.06;7395854;19;20025;-82
2023/05/04 06:50:09;;;;;;;6.13;0.98;;;;;;;29.40;32.12;100050.34;7395401;19;20528;-82
2023/05/04 06:52:40;;;;;;;3.05;1.65;;;;;;;29.35;32.55;100042.78;7395559;19;20502;-82
2023/05/04 06:55:07;;;;;;;8.57;2.83;;;;;;;29.36;32.30;100020.59;7396348;19;20025;-83
2023/05/04 06:57:33;;;;;;;14.23;1.90;;;;;;;29.16;31.97;100025.56;7393972;19;20043;-83
2023/05/04 06:59:59;;;;;;;2.30;1.25;;;;;;;29.14;32.32;100029.00;7396899;19;20476;-83
2023/05/04 07:02:25;;;;;;;9.48;1.77;;;;;;;29.23;32.18;100027.53;7396184;19;20042;-83
2023/05/04 07:04:52;;;;;;;5.00;2.83;;;;;;;29.05;32.96;100031.84;7394228;19;20011;-83
2023/05/04 07:07:18;;;;;;;1.35;1.35;;;;;;;29.11;32.82;100024.47;7393525;19;20029;-82
2023/05/04 07:09:46;;;;;;;5.65;1.83;;;;;;;29.15;32.84;100019.03;7393001;19;20039;-83
2023/05/04 07:12:13;;;;;;;1.55;1.45;;;;;;;29.11;32.92;100017.97;7393688;19;20014;-82
2023/05/04 07:14:39;;;;;;;5.25;2.03;;;;;;;29.17;32.50;100009.88;7392763;19;20048;-83
2023/05/04 07:17:05;;;;;;;2.50;1.75;;;;;;;28.82;32.90;100002.84;7393358;19;20034;-84
2023/05/04 07:19:31;;;;;;;3.10;1.70;;;;;;;29.06;32.86;99996.09;7396954;19;20014;-83
2023/05/04 07:21:59;;;;;;;1.17;0.80;;;;;;;29.58;32.89;99990.69;7395284;19;20447;-83
2023/05/04 07:24:28;;;;;;;2.72;1.40;;;;;;;29.61;33.02;99989.47;7394378;19;20496;-83
2023/05/04 07:26:54;;;;;;;3.28;1.17;;;;;;;29.70;32.53;99974.34;7393653;19;20082;-83
2023/05/04 07:29:21;;;;;;;4.75;2.47;;;;;;;29.67;32.43;99973.44;7392893;19;20396;-83
2023/05/04 07:31:48;;;;;;;5.00;2.53;;;;;;;29.88;32.45;99967.84;7394302;19;20015;-83
2023/05/04 07:34:14;;;;;;;3.50;0.80;;;;;;;30.00;32.67;99965.06;7392659;19;20018;-84
2023/05/04 07:36:40;;;;;;;3.05;2.33;;;;;;;29.87;32.81;99966.31;7394035;19;20015;-83
2023/05/04 07:39:06;;;;;;;5.07;1.88;;;;;;;30.12;32.62;99957.34;7393045;19;20023;-83
2023/05/04 07:41:32;;;;;;;8.80;1.65;;;;;;;30.24;32.11;99952.44;7392885;19;20022;-87
2023/05/04 07:43:58;;;;;;;6.68;2.28;;;;;;;30.69;31.75;99951.31;7398954;19;20022;-88
2023/05/04 07:46:25;;;;;;;2.22;1.77;;;;;;;31.26;31.02;99961.69;7396536;19;20019;-86
2023/05/04 07:48:51;;;;;;;2.65;1.60;;;;;;;31.19;31.20;99951.13;7393043;19;20010;-85
2023/05/04 07:51:17;;;;;;;5.18;1.60;;;;;;;31.13;31.20;99942.09;7394038;19;20018;-86
2023/05/04 07:53:43;;;;;;;3.72;1.45;;;;;;;31.18;31.17;99943.88;7395358;19;20041;-86
2023/05/04 07:56:11;;;;;;;1.38;1.23;;;;;;;31.60;30.76;99936.56;7394106;19;20010;-85
2023/05/04 07:58:37;;;;;;;4.97;2.05;;;;;;;31.60;30.85;99951.69;7392312;19;20490;-86
2023/05/04 08:01:04;;;;;;;6.07;1.45;;;;;;;31.88;30.31;99944.16;7395782;19;20047;-85
2023/05/04 08:03:31;;;;;;;15.00;1.85;;;;;;;31.86;30.94;99949.78;7397270;19;20018;-86
2023/05/04 08:05:57;;;;;;;6.47;1.98;;;;;;;32.06;30.76;99953.94;7392873;19;20480;-84
2023/05/04 08:08:24;;;;;;;4.40;1.52;;;;;;;31.92;31.06;99950.16;7392247;19;20014;-86
2023/05/04 08:10:50;;;;;;;3.20;1.42;;;;;;;32.20;30.62;99939.69;7394752;19;20011;-86
2023/05/04 08:13:16;;;;;;;5.47;2.08;;;;;;;32.59;29.62;99924.16;7398926;19;20119;-84
2023/05/04 08:15:42;;;;;;;4.38;1.42;;;;;;;32.40;29.95;99915.72;7393177;19;20021;-86
2023/05/04 08:18:08;;;;;;;9.52;2.58;;;;;;;32.24;29.85;99908.97;7392141;19;20026;-85
2023/05/04 08:20:35;;;;;;;2.35;1.38;;;;;;;32.41;29.95;99913.59;7391906;19;20369;-85
2023/05/04 08:23:02;;;;;;;2.63;1.45;;;;;;;32.38;29.51;99920.63;7395426;19;20516;-84
2023/05/04 08:25:28;;;;;;;3.60;1.42;;;;;;;32.37;29.82;99924.88;7392358;19;20024;-84
2023/05/04 08:27:55;;;;;;;2.45;1.10;;;;;;;32.13;29.82;99921.25;7391754;19;20077;-86
2023/05/04 08:30:21;;;;;;;1.17;0.88;;;;;;;32.09;29.42;99929.66;7391481;19;20365;-85
2023/05/04 08:32:51;;;;;;;4.30;1.67;;;;;;;32.05;30.04;99935.91;7391784;19;20018;-84
2023/05/04 08:35:17;;;;;;;2.05;1.10;;;;;;;32.52;29.84;99925.16;7391773;19;20025;-84
2023/05/04 08:37:44;;;;;;;1.67;1.02;;;;;;;32.73;29.24;99916.34;7388625;19;20472;-84
2023/05/04 08:40:11;;;;;;;2.92;1.15;;;;;;;32.85;29.21;99917.06;7392991;19;20046;-84
2023/05/04 08:42:37;;;;;;;3.45;1.45;;;;;;;33.02;29.41;99900.72;7392465;19;20095;-84
2023/05/04 08:45:04;;;;;;;4.32;2.33;;;;;;;33.11;28.96;99902.72;7391364;19;20010;-83
2023/05/04 08:47:30;;;;;;;3.47;1.40;;;;;;;33.11;28.76;99899.81;7389675;19;20010;-84
2023/05/04 08:49:56;;;;;;;7.00;2.22;;;;;;;33.23;28.77;99886.84;7393922;19;20018;-82
2023/05/04 08:52:24;;;;;;;6.55;1.40;;;;;;;33.37;28.68;99872.47;7389273;19;20030;-84
2023/05/04 08:54:55;;;;;;;6.70;2.45;;;;;;;33.62;28.64;99881.13;7392362;19;20018;-83
2023/05/04 08:57:24;;;;;;;;;;;;;;;33.92;28.45;99874.13;7388726;19;20039;-84
2023/05/04 08:59:54;;;;;;;0.90;0.75;;;;;;;33.78;28.24;99870.47;7389571;19;19943;-83
2023/05/04 09:02:22;;;;;;;2.70;2.03;;;;;;;33.97;28.27;99875.09;7388727;19;20015;-83
2023/05/04 09:04:49;;;;;;;1.85;1.63;;;;;;;33.99;27.92;99869.41;7392143;19;20424;-84
2023/05/04 09:07:16;;;;;;;7.32;2.30;;;;;;;33.92;27.88;99862.56;7388120;19;20018;-84
2023/05/04 09:09:43;;;;;;;14.18;2.65;;;;;;;33.93;27.89;99871.97;7390370;19;20337;-84
2023/05/04 09:12:09;;;;;;;1.70;0.70;;;;;;;34.35;27.60;99880.81;7390730;19;20077;-84
2023/05/04 09:14:35;;;;;;;1.98;1.27;;;;;;;34.82;27.68;99880.38;7390316;19;20113;-84
2023/05/04 09:17:16;;;;;;;4.97;1.63;;;;;;;35.12;27.57;99875.38;7388032;19;20015;-84
2023/05/04 09:19:43;;;;;;;2.78;1.60;;;;;;;35.18;26.99;99873.50;7393527;19;20044;-83
2023/05/04 09:22:16;;;;;;;2.63;1.38;;;;;;;35.20;27.31;99885.19;7392128;19;20499;-84
2023/05/04 09:24:44;;;;;;;3.13;1.17;;;;;;;35.22;27.19;99890.34;7391192;19;20085;-83
2023/05/04 09:27:11;;;;;;;7.13;1.95;;;;;;;35.60;27.29;99887.19;7389440;19;20019;-84
2023/05/04 09:29:39;;;;;;;3.25;0.95;;;;;;;35.86;27.15;99889.84;7388239;19;20018;-84
2023/05/04 09:32:11;;;;;;;8.40;1.98;;;;;;;36.08;27.15;99893.81;7388307;19;20048;-85
2023/05/04 09:34:52;;;;;;;3.45;1.73;;;;;;;36.30;26.99;99897.72;7388264;19;20021;-84
2023/05/04 09:37:21;;;;;;;7.05;1.48;;;;;;;36.38;26.30;99883.56;7389096;19;20082;-83
2023/05/04 09:39:57;;;;;;;2.05;1.10;;;;;;;36.09;26.02;99883.69;7389320;19;20022;-84
2023/05/04 09:42:24;;;;;;;10.05;1.58;;;;;;;36.32;26.13;99880.41;7391288;19;20014;-84
2023/05/04 09:44:58;;;;;;;5.35;1.50;;;;;;;36.57;26.14;99882.97;7392657;19;20476;-84
2023/05/04 09:47:36;;;;;;;0.70;0.55;;;;;;;36.93;26.25;99881.66;7390183;19;20023;-83
2023/05/04 09:50:16;;;;;;;3.17;0.47;;;;;;;37.43;26.10;99867.72;7391984;19;20014;-83
2023/05/04 09:52:43;;;;;;;3.70;1.83;;;;;;;37.29;25.85;99859.19;7387576;19;20043;-84
2023/05/04 09:55:14;;;;;;;2.78;1.85;;;;;;;37.30;25.28;99865.72;7388236;19;20437;-83
2023/05/04 09:57:41;;;;;;;5.50;1.38;;;;;;;37.11;25.51;99844.66;7389536;19;20019;-85
2023/05/04 10:00:14;;;;;;;6.10;1.35;;;;;;;36.86;25.44;99835.59;7389570;19;20025;-85
2023/05/04 10:02:42;;;;;;;4.22;1.00;;;;;;;36.74;25.54;99838.72;7389820;19;20030;-85
2023/05/04 10:05:12;;;;;;;13.82;1.70;;;;;;;36.46;25.60;99834.63;7388431;19;20018;-89
2023/05/04 10:07:39;;;;;;;5.00;1.45;;;;;;;36.26;25.97;99830.78;7392022;19;20470;-85
2023/05/04 10:10:07;;;;;;;8.75;1.00;;;;;;;36.51;25.64;99824.69;7390374;19;20078;-84
2023/05/04 10:12:33;;;;;;;2.08;1.88;;;;;;;36.59;25.88;99813.41;7395493;19;20011;-85
2023/05/04 10:15:00;;;;;;;2.60;1.55;;;;;;;36.07;25.77;99799.50;7393827;19;20019;-86
2023/05/04 10:17:26;;;;;;;6.35;2.15;;;;;;;35.42;26.32;99767.50;7395104;19;20384;-84
2023/05/04 10:20:06;;;;;;;3.75;1.30;;;;;;;35.28;25.77;99781.31;7401237;19;20019;-86
2023/05/04 10:23:14;;;;;;;1.27;1.13;;;;;;;35.11;26.00;99784.84;7397238;19;20025;-88
2023/05/04 10:25:58;;;;;;;7.47;1.35;;;;;;;35.28;26.11;99781.31;7396141;19;20022;-87
2023/05/04 10:28:27;;;;;;;3.78;1.42;;;;;;;35.66;26.18;99777.34;7395979;19;20018;-89
2023/05/04 10:30:57;;;;;;;2.70;1.05;;;;;;;36.22;26.47;99787.09;7395150;19;20025;-86
2023/05/04 10:33:24;;;;;;;2.83;1.30;;;;;;;36.30;25.96;99775.88;7393675;19;20360;-87
2023/05/04 10:35:51;;;;;;;3.67;1.55;;;;;;;36.56;26.16;99779.91;7393323;19;20010;-87
2023/05/04 10:38:18;;;;;;;6.72;1.27;;;;;;;36.66;26.19;99783.25;7397139;19;20029;-86
2023/05/04 10:40:47;;;;;;;4.68;2.30;;;;;;;36.82;26.10;99760.66;7395266;19;20019;-88
2023/05/04 10:43:22;;;;;;;12.27;1.25;;;;;;;36.95;25.87;99753.97;7396254;19;20021;-87
2023/05/04 10:45:49;;;;;;;5.47;1.48;;;;;;;37.19;25.24;99751.28;7395277;19;20043;-86
2023/05/04 10:48:15;;;;;;;4.03;1.20;;;;;;;36.83;25.13;99753.47;7397024;19;20030;-87
2023/05/04 10:50:47;;;;;;;3.42;1.33;;;;;;;36.60;24.86;99751.06;7394144;19;20358;-87
2023/05/04 10:53:14;;;;;;;4.13;1.40;;;;;;;36.15;25.20;99739.69;7393016;19;20025;-87
2023/05/04 10:55:42;;;;;;;4.13;1.35;;;;;;;36.72;24.88;99750.81;7394587;19;20014;-88
2023/05/04 10:58:10;;;;;;;11.65;1.77;;;;;;;37.04;24.73;99752.88;7396491;19;20104;-89
2023/05/04 11:00:44;;;;;;;5.75;1.88;;;;;;;37.46;24.68;99747.25;7398202;19;20098;-88
2023/05/04 11:03:11;;;;;;;5.70;1.67;;;;;;;37.62;24.36;99736.25;7395358;19;20044;-88
2023/05/04 11:05:45;;;;;;;5.88;1.92;;;;;;;37.32;24.48;99726.38;7394666;19;20026;-85
2023/05/04 11:08:18;;;;;;;3.95;2.28;;;;;;;36.71;24.60;99720.28;7396726;19;20041;-83
2023/05/04 11:10:46;;;;;;;3.17;0.93;;;;;;;36.84;24.90;99710.66;7393038;19;20105;-82
2023/05/04 11:13:13;;;;;;;9.98;1.88;;;;;;;36.52;24.95;99692.69;7394054;19;20559;-89
2023/05/04 11:15:49;;;;;;;14.77;1.80;;;;;;;37.35;24.54;99693.09;7393170;19;20391;-84
2023/05/04 11:18:28;;;;;;;5.70;1.40;;;;;;;37.29;24.20;99678.31;7392087;19;20014;-84
2023/05/04 11:20:55;;;;;;;3.90;1.70;;;;;;;37.39;24.66;99678.69;7395607;19;20487;-86
2023/05/04 11:23:21;;;;;;;9.38;2.10;;;;;;;37.58;24.30;99669.97;7395760;19;20039;-93
2023/05/04 11:25:48;;;;;;;4.43;1.85;;;;;;;37.63;24.52;99665.06;7396670;19;20015;-82
2023/05/04 11:28:14;;;;;;;15.70;1.45;;;;;;;37.74;24.61;99658.94;7393424;19;20021;-84